Time;durP1;ratioP1;P1;durP2;ratioP2;P2;SDS_P1;SDS_P2;PMS_P1;PMS_P2;Temp;Humidity;BMP_temperature;BMP_pressure;BME280_temperature;BME280_humidity;BME280_pressure;Samples;Min_cycle;Max_cycle;Signal;HPM_P1;HPM_P2
2022/12/13 00:02:16;;;;;;;6.80;3.60;;;;;;;;;;6207292;23;20072;-49
2022/12/13 00:04:50;;;;;;;4.63;3.30;;;;;;;;;;6209583;23;20052;-48
2022/12/13 00:07:24;;;;;;;4.87;3.43;;;;;;;;;;6208105;23;20027;-50
2022/12/13 00:09:51;;;;;;;5.90;3.67;;;;;;;;;;6206432;23;20227;-47
2022/12/13 00:12:25;;;;;;;5.43;3.67;;;;;;;;;;6208508;23;20027;-47
2022/12/13 00:14:52;;;;;;;10.20;3.83;;;;;;;;;;6207968;23;20031;-49
2022/12/13 00:17:20;;;;;;;6.00;3.40;;;;;;;;;;6205875;23;20051;-63
2022/12/13 00:20:00;;;;;;;6.00;3.55;;;;;;;;;;6182497;23;20046;-66
2022/12/13 00:22:27;;;;;;;5.78;3.60;;;;;;;;;;6208972;23;20096;-66
2022/12/13 00:25:01;;;;;;;6.37;3.27;;;;;;;;;;6207248;23;20099;-66
2022/12/13 00:27:28;;;;;;;5.90;3.30;;;;;;;;;;6208599;23;20103;-66
2022/12/13 00:30:02;;;;;;;4.60;3.27;;;;;;;;;;6207982;23;20039;-66
2022/12/13 00:32:29;;;;;;;5.03;3.30;;;;;;;;;;6206346;23;20103;-66
2022/12/13 00:35:03;;;;;;;7.03;3.50;;;;;;;;;;6208007;23;20101;-52
2022/12/13 00:37:30;;;;;;;5.43;2.88;;;;;;;;;;6206370;23;20111;-51
2022/12/13 00:40:04;;;;;;;3.47;2.77;;;;;;;;;;6205810;23;20759;-54
2022/12/13 00:42:31;;;;;;;7.57;3.28;;;;;;;;;;6181825;23;20017;-50
2022/12/13 00:45:05;;;;;;;7.13;3.40;;;;;;;;;;6208501;23;20426;-54
2022/12/13 00:47:32;;;;;;;;;;;;;;;;;;6208277;23;20028;-55
2022/12/13 00:50:00;;;;;;;6.07;3.37;;;;;;;;;;6207600;23;20359;-52
2022/12/13 00:52:34;;;;;;;4.70;3.10;;;;;;;;;;6208445;23;20119;-52
2022/12/13 00:55:01;;;;;;;5.40;3.45;;;;;;;;;;6211315;23;20048;-53
2022/12/13 00:57:35;;;;;;;7.83;3.10;;;;;;;;;;6210870;23;20103;-49
2022/12/13 01:00:03;;;;;;;5.03;3.53;;;;;;;;;;6210746;23;20410;-46
2022/12/13 01:02:37;;;;;;;4.38;3.08;;;;;;;;;;6211193;23;20103;-47
2022/12/13 01:05:05;;;;;;;4.07;2.53;;;;;;;;;;6210531;23;20128;-46
2022/12/13 01:07:32;;;;;;;6.57;3.55;;;;;;;;;;6209242;23;20037;-50
2022/12/13 01:10:06;;;;;;;7.10;2.90;;;;;;;;;;6210972;23;20107;-46
2022/12/13 01:12:33;;;;;;;6.30;3.30;;;;;;;;;;6211188;23;20107;-55
2022/12/13 01:15:07;;;;;;;5.97;3.20;;;;;;;;;;6210080;23;20017;-54
2022/12/13 01:17:48;;;;;;;5.87;3.13;;;;;;;;;;6209700;23;20462;-66
2022/12/13 01:20:22;;;;;;;4.23;2.93;;;;;;;;;;6209873;23;20025;-66
2022/12/13 01:22:49;;;;;;;6.20;3.47;;;;;;;;;;6208968;23;20103;-66
2022/12/13 01:25:23;;;;;;;5.27;3.13;;;;;;;;;;6209027;23;20017;-66
2022/12/13 01:27:50;;;;;;;4.70;2.95;;;;;;;;;;6209370;23;20441;-66
2022/12/13 01:30:17;;;;;;;;;;;;;;;;;;6209978;23;20025;-66
2022/12/13 01:32:51;;;;;;;6.57;3.03;;;;;;;;;;6208789;23;19920;-52
2022/12/13 01:35:18;;;;;;;;;;;;;;;;;;6209656;23;20032;-66
2022/12/13 01:37:45;;;;;;;4.83;3.03;;;;;;;;;;6209963;23;19998;-63
2022/12/13 01:40:24;;;;;;;5.97;3.53;;;;;;;;;;6209376;23;20485;-53
2022/12/13 01:43:05;;;;;;;5.17;3.50;;;;;;;;;;6210589;23;20020;-57
2022/12/13 01:45:41;;;;;;;5.33;3.53;;;;;;;;;;6210645;23;20035;-55
2022/12/13 01:48:16;;;;;;;4.57;2.97;;;;;;;;;;6209039;23;20141;-56
2022/12/13 01:51:07;;;;;;;5.60;3.40;;;;;;;;;;6210136;23;20020;-55
2022/12/13 01:53:35;;;;;;;6.27;3.70;;;;;;;;;;6210306;23;20020;-56
2022/12/13 01:56:11;;;;;;;6.00;3.43;;;;;;;;;;6210071;23;20063;-66
2022/12/13 01:58:38;;;;;;;6.37;3.40;;;;;;;;;;6209750;23;20035;-66
2022/12/13 02:01:12;;;;;;;5.80;3.30;;;;;;;;;;6206843;23;20021;-66
2022/12/13 02:03:39;;;;;;;5.05;3.05;;;;;;;;;;6208654;23;20062;-64
2022/12/13 02:06:06;;;;;;;;;;;;;;;;;;6208841;23;20028;-66
2022/12/13 02:08:41;;;;;;;8.17;3.20;;;;;;;;;;6208243;23;20356;-65
2022/12/13 02:11:09;;;;;;;8.77;3.27;;;;;;;;;;6208814;23;20025;-56
2022/12/13 02:13:37;;;;;;;7.20;2.93;;;;;;;;;;6209451;23;20118;-46
2022/12/13 02:16:30;;;;;;;8.40;3.33;;;;;;;;;;6206881;23;20599;-54
2022/12/13 02:19:04;;;;;;;5.97;3.37;;;;;;;;;;6207877;23;20537;-54
2022/12/13 02:21:50;;;;;;;5.57;3.90;;;;;;;;;;6209701;23;20028;-55
2022/12/13 02:24:29;;;;;;;5.90;3.27;;;;;;;;;;6209898;23;20091;-53
2022/12/13 02:27:06;;;;;;;8.23;3.67;;;;;;;;;;6207368;23;20021;-55
2022/12/13 02:29:52;;;;;;;7.33;3.20;;;;;;;;;;6209949;23;20402;-56
2022/12/13 02:32:45;;;;;;;6.07;3.83;;;;;;;;;;6208653;23;20100;-64
2022/12/13 02:35:17;;;;;;;10.17;3.77;;;;;;;;;;6208744;23;20031;-52
2022/12/13 02:37:54;;;;;;;6.40;3.60;;;;;;;;;;6208153;23;20479;-52
2022/12/13 02:40:26;;;;;;;6.00;3.40;;;;;;;;;;6209167;23;20434;-55
2022/12/13 02:43:06;;;;;;;5.40;3.50;;;;;;;;;;6208202;23;20099;-50
2022/12/13 02:45:37;;;;;;;5.30;3.50;;;;;;;;;;6208635;23;20044;-51
2022/12/13 02:48:11;;;;;;;;;;;;;;;;;;6210138;23;20027;-66
2022/12/13 02:50:39;;;;;;;7.60;3.67;;;;;;;;;;6208507;23;19916;-52
2022/12/13 02:53:08;;;;;;;6.23;3.40;;;;;;;;;;6207894;23;20043;-54
2022/12/13 02:55:42;;;;;;;8.33;3.87;;;;;;;;;;6209124;23;20030;-52
2022/12/13 02:58:09;;;;;;;;;;;;;;;;;;6208895;23;20017;-51
2022/12/13 03:00:36;;;;;;;6.03;3.37;;;;;;;;;;6209291;23;19926;-54
2022/12/13 03:03:10;;;;;;;6.87;3.63;;;;;;;;;;6208069;23;20332;-50
2022/12/13 03:08:39;;;;;;;7.50;3.70;;;;;;;;;;6207893;23;20020;-47
2022/12/13 03:11:12;;;;;;;5.40;3.37;;;;;;;;;;6206946;23;20533;-48
2022/12/13 03:13:54;;;;;;;8.43;3.93;;;;;;;;;;6207655;23;20107;-45
2022/12/13 03:16:33;;;;;;;9.80;4.00;;;;;;;;;;6204791;23;20028;-46
2022/12/13 03:19:09;;;;;;;9.10;4.33;;;;;;;;;;6207883;23;20056;-45
2022/12/13 03:21:44;;;;;;;11.07;4.17;;;;;;;;;;6207696;23;20576;-46
2022/12/13 03:24:17;;;;;;;6.40;3.50;;;;;;;;;;6208735;23;20067;-46
2022/12/13 03:26:51;;;;;;;8.90;3.87;;;;;;;;;;6208834;23;20020;-64
2022/12/13 03:29:18;;;;;;;6.03;3.30;;;;;;;;;;6208730;23;20346;-64
2022/12/13 03:31:50;;;;;;;8.67;4.10;;;;;;;;;;6206943;23;20103;-48
2022/12/13 03:34:24;;;;;;;7.77;3.87;;;;;;;;;;6209202;23;20029;-50
2022/12/13 03:37:09;;;;;;;7.90;4.10;;;;;;;;;;6207504;23;20023;-46
2022/12/13 03:39:43;;;;;;;7.80;3.73;;;;;;;;;;6207037;23;20504;-46
2022/12/13 03:42:10;;;;;;;;;;;;;;;;;;6208215;23;20441;-49
2022/12/13 03:44:38;;;;;;;8.73;3.90;;;;;;;;;;6207951;23;20538;-47
2022/12/13 03:47:11;;;;;;;6.43;3.80;;;;;;;;;;6207689;23;20107;-64
2022/12/13 03:49:38;;;;;;;;;;;;;;;;;;6209188;23;20415;-64
2022/12/13 03:52:12;;;;;;;7.50;3.87;;;;;;;;;;6206758;23;20068;-65
2022/12/13 03:54:39;;;;;;;;;;;;;;;;;;6209107;23;20492;-64
2022/12/13 03:57:06;;;;;;;9.47;4.30;;;;;;;;;;6207480;23;19919;-64
2022/12/13 03:59:40;;;;;;;6.00;3.77;;;;;;;;;;6207128;23;20025;-64
2022/12/13 04:02:07;;;;;;;;;;;;;;;;;;6208563;23;20021;-63
2022/12/13 04:04:41;;;;;;;10.57;3.97;;;;;;;;;;6207219;23;19919;-48
2022/12/13 04:07:08;;;;;;;7.77;3.87;;;;;;;;;;6207348;23;20099;-63
2022/12/13 04:09:48;;;;;;;5.63;3.50;;;;;;;;;;6208837;23;20100;-48
2022/12/13 04:15:14;;;;;;;5.85;3.65;;;;;;;;;;6207967;23;20031;-45
2022/12/13 04:17:49;;;;;;;6.27;4.13;;;;;;;;;;6206312;23;20082;-48
2022/12/13 04:20:29;;;;;;;9.30;3.83;;;;;;;;;;6207619;23;20028;-47
2022/12/13 04:22:56;;;;;;;9.17;4.27;;;;;;;;;;6207551;23;20357;-48
2022/12/13 04:25:36;;;;;;;10.37;4.17;;;;;;;;;;6209312;23;20024;-52
2022/12/13 04:28:03;;;;;;;7.80;4.20;;;;;;;;;;6209393;23;20354;-64
2022/12/13 04:30:37;;;;;;;8.33;3.40;;;;;;;;;;6208269;23;20025;-64
2022/12/13 04:33:04;;;;;;;7.20;3.87;;;;;;;;;;6206874;23;20358;-64
2022/12/13 04:35:31;;;;;;;7.97;4.22;;;;;;;;;;6208846;23;20031;-64
2022/12/13 04:38:05;;;;;;;5.63;3.53;;;;;;;;;;6208606;23;20030;-64
2022/12/13 04:40:32;;;;;;;;;;;;;;;;;;6209822;23;20100;-64
2022/12/13 04:43:06;;;;;;;7.83;3.40;;;;;;;;;;6207361;23;20003;-64
2022/12/13 04:45:33;;;;;;;;;;;;;;;;;;6209573;23;20025;-58
2022/12/13 04:48:01;;;;;;;6.57;3.30;;;;;;;;;;6207336;23;20384;-53
2022/12/13 04:50:34;;;;;;;6.77;3.57;;;;;;;;;;6206662;23;20043;-54
2022/12/13 04:53:02;;;;;;;6.27;3.80;;;;;;;;;;6207801;23;20020;-57
2022/12/13 04:55:36;;;;;;;4.70;3.03;;;;;;;;;;6207120;23;20027;-55
2022/12/13 04:58:03;;;;;;;6.77;3.17;;;;;;;;;;6207005;23;20107;-56
2022/12/13 05:00:30;;;;;;;6.63;3.50;;;;;;;;;;6207727;23;20569;-56
2022/12/13 05:03:04;;;;;;;6.73;3.57;;;;;;;;;;6207251;23;20021;-64
2022/12/13 05:05:31;;;;;;;;;;;;;;;;;;6208285;23;20458;-55
2022/12/13 05:08:06;;;;;;;5.30;3.40;;;;;;;;;;6207997;23;20329;-55
2022/12/13 05:10:34;;;;;;;5.97;3.43;;;;;;;;;;6208463;23;20320;-56
2022/12/13 05:13:04;;;;;;;6.37;3.80;;;;;;;;;;6206142;23;20025;-54
2022/12/13 05:15:38;;;;;;;7.73;3.20;;;;;;;;;;6208807;23;20020;-53
2022/12/13 05:18:05;;;;;;;;;;;;;;;;;;6208309;23;20072;-50
2022/12/13 05:21:01;;;;;;;8.67;3.57;;;;;;;;;;6205039;23;20000;-63
2022/12/13 05:23:35;;;;;;;6.07;3.78;;;;;;;;;;6181439;23;20492;-63
2022/12/13 05:26:09;;;;;;;5.47;3.73;;;;;;;;;;6206783;23;20056;-55
2022/12/13 05:28:36;;;;;;;;;;;;;;;;;;6207348;23;20027;-51
2022/12/13 05:31:10;;;;;;;6.70;3.40;;;;;;;;;;6203885;23;20003;-53
2022/12/13 05:33:50;;;;;;;6.30;3.60;;;;;;;;;;6206319;23;20076;-57
2022/12/13 05:36:17;;;;;;;7.73;3.87;;;;;;;;;;6205880;23;20020;-54
2022/12/13 05:38:52;;;;;;;5.30;3.87;;;;;;;;;;6208683;23;20020;-54
2022/12/13 05:41:20;;;;;;;5.30;3.43;;;;;;;;;;6209763;23;20648;-45
2022/12/13 05:43:47;;;;;;;5.70;3.70;;;;;;;;;;6206111;23;20021;-64
2022/12/13 05:46:21;;;;;;;7.63;4.20;;;;;;;;;;6207113;23;20060;-63
2022/12/13 05:48:48;;;;;;;;;;;;;;;;;;6204742;23;20024;-65
2022/12/13 05:51:15;;;;;;;6.67;3.23;;;;;;;;;;6175450;23;20385;-64
2022/12/13 05:53:49;;;;;;;5.33;3.23;;;;;;;;;;6206091;23;20020;-64
2022/12/13 05:56:19;;;;;;;4.43;3.10;;;;;;;;;;6206310;23;20021;-64
2022/12/13 05:58:53;;;;;;;5.13;2.83;;;;;;;;;;6207884;23;20478;-47
2022/12/13 06:01:20;;;;;;;;;;;;;;;;;;6209607;23;20025;-57
2022/12/13 06:03:47;;;;;;;6.53;3.57;;;;;;;;;;6208650;23;19920;-46
2022/12/13 06:06:21;;;;;;;6.73;3.50;;;;;;;;;;6209512;23;20135;-45
2022/12/13 06:08:48;;;;;;;5.72;3.58;;;;;;;;;;6208685;23;20040;-47
2022/12/13 06:11:23;;;;;;;5.83;3.60;;;;;;;;;;6183548;23;20467;-45
2022/12/13 06:13:58;;;;;;;7.00;4.00;;;;;;;;;;6209491;23;20500;-46
2022/12/13 06:16:49;;;;;;;6.00;3.67;;;;;;;;;;6209055;23;20052;-46
2022/12/13 06:19:23;;;;;;;5.93;3.50;;;;;;;;;;6208793;23;20017;-54
2022/12/13 06:21:57;;;;;;;5.30;3.70;;;;;;;;;;6209768;23;20103;-64
2022/12/13 06:24:26;;;;;;;;;;;;;;;;;;6211487;23;20076;-64
2022/12/13 06:26:53;;;;;;;5.43;3.60;;;;;;;;;;6208266;23;19947;-64
2022/12/13 06:29:27;;;;;;;6.47;3.50;;;;;;;;;;6209905;23;20021;-64
2022/12/13 06:32:02;;;;;;;6.27;3.63;;;;;;;;;;6208950;23;20044;-64
2022/12/13 06:34:31;;;;;;;6.43;3.50;;;;;;;;;;6210409;23;20024;-64
2022/12/13 06:36:58;;;;;;;6.40;3.60;;;;;;;;;;6209507;23;20358;-53
2022/12/13 06:39:32;;;;;;;8.20;3.73;;;;;;;;;;6210291;23;20020;-66
2022/12/13 06:42:00;;;;;;;6.07;3.80;;;;;;;;;;6208069;23;20529;-65
2022/12/13 06:44:34;;;;;;;6.10;3.93;;;;;;;;;;6210137;23;20072;-66
2022/12/13 06:47:02;;;;;;;8.10;3.90;;;;;;;;;;6209279;23;20063;-66
2022/12/13 06:49:38;;;;;;;7.03;3.60;;;;;;;;;;6210107;23;20406;-66
2022/12/13 06:52:13;;;;;;;6.47;3.10;;;;;;;;;;6208731;23;20021;-66
2022/12/13 06:54:41;;;;;;;6.30;3.73;;;;;;;;;;6209998;23;20025;-65
2022/12/13 06:57:15;;;;;;;8.40;4.00;;;;;;;;;;6208910;23;20028;-47
2022/12/13 06:59:42;;;;;;;7.90;4.13;;;;;;;;;;6209323;23;20512;-56
2022/12/13 07:02:11;;;;;;;7.73;4.10;;;;;;;;;;6209455;23;20062;-59
2022/12/13 07:04:52;;;;;;;6.03;3.70;;;;;;;;;;6207905;23;20021;-57
2022/12/13 07:07:19;;;;;;;9.10;3.93;;;;;;;;;;6209942;23;20155;-57
2022/12/13 07:09:53;;;;;;;10.40;3.67;;;;;;;;;;6208266;23;20454;-55
2022/12/13 07:12:21;;;;;;;8.53;3.47;;;;;;;;;;6208959;23;20723;-54
2022/12/13 07:14:54;;;;;;;7.10;3.67;;;;;;;;;;6210068;23;20017;-65
2022/12/13 07:17:28;;;;;;;6.47;3.90;;;;;;;;;;6209569;23;20024;-50
2022/12/13 07:20:09;;;;;;;7.47;4.23;;;;;;;;;;6179159;23;20020;-45
2022/12/13 07:22:37;;;;;;;10.40;4.63;;;;;;;;;;6178397;23;20028;-47
2022/12/13 07:25:17;;;;;;;4.70;3.20;;;;;;;;;;6180423;23;20024;-46
2022/12/13 07:28:00;;;;;;;6.83;3.73;;;;;;;;;;6178820;23;20017;-46
2022/12/13 07:30:38;;;;;;;7.33;3.47;;;;;;;;;;6178833;23;20142;-46
2022/12/13 07:33:08;;;;;;;6.37;4.13;;;;;;;;;;6178677;23;20025;-45
2022/12/13 07:35:48;;;;;;;8.97;4.87;;;;;;;;;;6179216;23;20482;-66
2022/12/13 07:38:21;;;;;;;6.87;4.13;;;;;;;;;;6177996;23;20027;-64
2022/12/13 07:40:56;;;;;;;7.03;3.97;;;;;;;;;;6177807;23;20258;-64
2022/12/13 07:43:24;;;;;;;8.93;3.97;;;;;;;;;;6178443;23;20084;-64
2022/12/13 07:45:52;;;;;;;6.13;3.83;;;;;;;;;;6177858;23;20061;-64
2022/12/13 07:48:25;;;;;;;7.67;3.67;;;;;;;;;;6177577;23;20075;-64
2022/12/13 07:50:53;;;;;;;7.73;3.83;;;;;;;;;;6178752;23;20120;-64
2022/12/13 07:53:27;;;;;;;7.33;3.63;;;;;;;;;;6177902;23;20024;-51
2022/12/13 07:56:03;;;;;;;7.17;4.27;;;;;;;;;;6178360;23;20844;-64
2022/12/13 07:58:36;;;;;;;5.78;3.10;;;;;;;;;;6179120;23;20120;-52
2022/12/13 08:01:05;;;;;;;8.95;4.28;;;;;;;;;;6178371;23;20095;-56
2022/12/13 08:03:32;;;;;;;10.10;4.03;;;;;;;;;;6178428;23;20656;-55
2022/12/13 08:06:10;;;;;;;8.10;4.20;;;;;;;;;;6179115;23;20021;-53
2022/12/13 08:08:38;;;;;;;8.10;3.87;;;;;;;;;;6178885;23;20466;-55
2022/12/13 08:11:15;;;;;;;7.50;3.87;;;;;;;;;;6178385;23;20035;-51
2022/12/13 08:13:42;;;;;;;10.33;4.03;;;;;;;;;;6179516;23;20021;-55
2022/12/13 08:16:17;;;;;;;7.77;3.87;;;;;;;;;;6178352;23;20017;-57
2022/12/13 08:19:02;;;;;;;8.43;3.60;;;;;;;;;;6193662;23;20021;-55
2022/12/13 08:21:43;;;;;;;6.33;3.30;;;;;;;;;;6208169;23;20020;-56
2022/12/13 08:24:28;;;;;;;8.13;3.60;;;;;;;;;;6209035;23;20406;-51
2022/12/13 08:27:03;;;;;;;7.77;4.07;;;;;;;;;;6207824;23;20096;-51
2022/12/13 08:29:31;;;;;;;8.83;3.90;;;;;;;;;;6208906;23;20031;-56
2022/12/13 08:32:10;;;;;;;8.50;4.00;;;;;;;;;;6207870;23;20029;-45
2022/12/13 08:34:38;;;;;;;9.03;3.77;;;;;;;;;;6208629;23;20017;-66
2022/12/13 08:37:12;;;;;;;6.53;3.60;;;;;;;;;;6208797;23;20021;-66
2022/12/13 08:39:39;;;;;;;5.60;3.30;;;;;;;;;;6209072;23;20095;-66
2022/12/13 08:42:15;;;;;;;9.40;4.67;;;;;;;;;;6209363;23;20024;-67
2022/12/13 08:44:46;;;;;;;7.70;4.10;;;;;;;;;;6208116;23;20035;-67
2022/12/13 08:47:22;;;;;;;8.37;3.93;;;;;;;;;;6207979;23;20120;-66
2022/12/13 08:49:57;;;;;;;11.93;3.93;;;;;;;;;;6209442;23;20024;-55
2022/12/13 08:52:32;;;;;;;7.33;4.17;;;;;;;;;;6208083;23;20674;-66
2022/12/13 08:55:07;;;;;;;11.40;4.60;;;;;;;;;;6207640;23;20021;-54
2022/12/13 08:57:41;;;;;;;10.90;4.07;;;;;;;;;;6209395;23;20032;-56
2022/12/13 09:00:11;;;;;;;8.07;4.40;;;;;;;;;;6208084;23;20048;-52
2022/12/13 09:02:38;;;;;;;8.37;4.33;;;;;;;;;;6207914;23;20107;-53
2022/12/13 09:05:12;;;;;;;8.00;4.67;;;;;;;;;;6207754;23;20108;-57
2022/12/13 09:08:03;;;;;;;9.60;4.23;;;;;;;;;;6207909;23;20020;-57
2022/12/13 09:10:58;;;;;;;8.13;4.57;;;;;;;;;;6207644;23;20526;-55
2022/12/13 09:13:48;;;;;;;17.27;5.70;;;;;;;;;;6208928;23;20028;-56
2022/12/13 09:16:22;;;;;;;14.57;5.80;;;;;;;;;;6210254;23;20391;-53
2022/12/13 09:19:10;;;;;;;14.73;5.37;;;;;;;;;;6209019;23;20055;-51
2022/12/13 09:21:52;;;;;;;8.57;4.10;;;;;;;;;;6208582;23;20025;-54
2022/12/13 09:24:28;;;;;;;11.77;4.67;;;;;;;;;;6209937;23;20021;-56
2022/12/13 09:27:03;;;;;;;11.63;4.37;;;;;;;;;;6210437;23;20059;-53
2022/12/13 09:29:54;;;;;;;8.83;4.43;;;;;;;;;;6211357;23;20027;-54
2022/12/13 09:32:21;;;;;;;12.23;4.57;;;;;;;;;;6209236;23;20035;-49
2022/12/13 09:34:55;;;;;;;8.90;4.73;;;;;;;;;;6208545;23;20665;-46
2022/12/13 09:37:22;;;;;;;9.33;3.87;;;;;;;;;;6209288;23;20021;-46
2022/12/13 09:39:56;;;;;;;8.27;3.60;;;;;;;;;;6210393;23;20035;-46
2022/12/13 09:42:25;;;;;;;8.80;4.30;;;;;;;;;;6210474;23;20099;-46
2022/12/13 09:45:01;;;;;;;6.23;3.50;;;;;;;;;;6210107;23;20032;-45
2022/12/13 09:47:33;;;;;;;9.33;3.83;;;;;;;;;;6209969;23;20083;-60
2022/12/13 09:50:22;;;;;;;6.40;3.57;;;;;;;;;;6211256;23;20047;-51
2022/12/13 09:52:51;;;;;;;7.33;3.30;;;;;;;;;;6208396;23;20478;-53
2022/12/13 09:55:28;;;;;;;7.37;3.50;;;;;;;;;;6209734;23;20260;-52
2022/12/13 09:57:57;;;;;;;10.90;4.00;;;;;;;;;;6208749;23;20071;-53
2022/12/13 10:00:28;;;;;;;7.33;3.83;;;;;;;;;;6211439;23;20345;-52
2022/12/13 10:03:05;;;;;;;10.07;4.07;;;;;;;;;;6210259;23;20031;-55
2022/12/13 10:05:34;;;;;;;;;;;;;;;;;;6210120;23;20623;-51
2022/12/13 10:08:11;;;;;;;8.63;4.20;;;;;;;;;;6209336;23;19920;-52
2022/12/13 10:10:38;;;;;;;8.63;4.20;;;;;;;;;;6210649;23;20021;-63
2022/12/13 10:13:21;;;;;;;9.63;4.27;;;;;;;;;;6209667;23;20020;-63
2022/12/13 10:15:54;;;;;;;11.03;4.23;;;;;;;;;;6210757;23;20067;-64
2022/12/13 10:18:36;;;;;;;10.23;4.83;;;;;;;;;;6209302;23;20021;-63
2022/12/13 10:21:09;;;;;;;10.90;4.23;;;;;;;;;;6208416;23;20030;-63
2022/12/13 10:23:43;;;;;;;12.17;4.67;;;;;;;;;;6208509;23;20023;-64
2022/12/13 10:26:35;;;;;;;8.20;4.37;;;;;;;;;;6209769;23;20421;-55
2022/12/13 10:29:08;;;;;;;;;;;;;;;;;;6208493;23;20020;-55
2022/12/13 10:31:46;;;;;;;8.10;3.70;;;;;;;;;;6208969;23;19923;-55
2022/12/13 10:34:21;;;;;;;5.87;3.37;;;;;;;;;;6209019;23;20048;-57
2022/12/13 10:36:55;;;;;;;6.87;3.23;;;;;;;;;;6208507;23;20024;-58
2022/12/13 10:39:36;;;;;;;7.87;3.47;;;;;;;;;;6182479;23;20024;-57
2022/12/13 10:42:12;;;;;;;9.77;3.97;;;;;;;;;;6207726;23;20021;-56
2022/12/13 10:44:49;;;;;;;6.93;3.90;;;;;;;;;;6208686;23;20017;-64
2022/12/13 10:47:23;;;;;;;9.50;4.00;;;;;;;;;;6208232;23;20025;-64
2022/12/13 10:49:52;;;;;;;8.63;4.23;;;;;;;;;;6208950;23;20100;-54
2022/12/13 10:52:27;;;;;;;9.87;4.87;;;;;;;;;;6209781;23;20032;-54
2022/12/13 10:55:30;;;;;;;8.27;3.97;;;;;;;;;;6209679;23;20021;-56
2022/12/13 10:58:00;;;;;;;7.15;3.47;;;;;;;;;;6209073;23;20100;-54
2022/12/13 11:00:39;;;;;;;8.03;3.67;;;;;;;;;;6209872;23;20020;-54
2022/12/13 11:03:07;;;;;;;9.37;4.40;;;;;;;;;;6208457;23;20020;-64
2022/12/13 11:05:43;;;;;;;8.07;3.67;;;;;;;;;;6209216;23;20031;-53
2022/12/13 11:08:25;;;;;;;13.00;4.50;;;;;;;;;;6208333;23;20021;-53
2022/12/13 11:11:00;;;;;;;6.27;3.40;;;;;;;;;;6207901;23;20020;-53
2022/12/13 11:13:31;;;;;;;14.27;4.40;;;;;;;;;;6209339;23;20119;-56
2022/12/13 11:16:16;;;;;;;9.52;3.60;;;;;;;;;;6208076;23;20063;-57
2022/12/13 11:18:48;;;;;;;7.53;3.70;;;;;;;;;;6208183;23;20099;-50
2022/12/13 11:21:33;;;;;;;10.57;4.83;;;;;;;;;;6208230;23;20020;-51
2022/12/13 11:24:06;;;;;;;8.53;4.30;;;;;;;;;;6208336;23;20628;-53
2022/12/13 11:26:41;;;;;;;6.83;3.37;;;;;;;;;;6208049;23;20382;-53
2022/12/13 11:29:18;;;;;;;8.17;3.47;;;;;;;;;;6208664;23;20071;-52
2022/12/13 11:32:01;;;;;;;6.53;3.30;;;;;;;;;;6208525;23;20470;-50
2022/12/13 11:34:40;;;;;;;5.57;3.78;;;;;;;;;;6182379;23;20071;-52
2022/12/13 11:37:33;;;;;;;8.17;3.97;;;;;;;;;;6207973;23;20059;-51
2022/12/13 11:40:04;;;;;;;10.53;3.97;;;;;;;;;;6209260;23;20111;-50
2022/12/13 11:42:58;;;;;;;8.63;4.00;;;;;;;;;;6209871;23;20024;-48
2022/12/13 11:45:29;;;;;;;6.50;3.97;;;;;;;;;;6208461;23;20017;-64
2022/12/13 11:48:08;;;;;;;7.65;4.05;;;;;;;;;;6208623;23;20021;-64
2022/12/13 11:50:44;;;;;;;4.87;3.70;;;;;;;;;;6209407;23;20472;-65
2022/12/13 11:53:18;;;;;;;7.20;3.57;;;;;;;;;;6207816;23;20107;-64
2022/12/13 11:55:57;;;;;;;5.93;3.80;;;;;;;;;;6208957;23;20028;-64
2022/12/13 11:58:50;;;;;;;6.77;3.57;;;;;;;;;;6208892;23;20020;-64
2022/12/13 12:01:50;;;;;;;4.90;2.43;;;;;;;;;;6207667;23;20024;-58
2022/12/13 12:04:35;;;;;;;9.03;3.80;;;;;;;;;;6208583;23;20743;-51
2022/12/13 12:07:12;;;;;;;6.15;2.90;;;;;;;;;;6208747;23;20512;-54
2022/12/13 12:10:05;;;;;;;7.33;4.00;;;;;;;;;;6207125;23;20017;-53
2022/12/13 12:12:40;;;;;;;6.60;3.37;;;;;;;;;;6208661;23;20107;-50
2022/12/13 12:15:17;;;;;;;7.37;3.73;;;;;;;;;;6206770;23;20441;-51
2022/12/13 12:17:53;;;;;;;7.20;3.60;;;;;;;;;;6209055;23;20123;-53
2022/12/13 12:20:37;;;;;;;6.73;4.00;;;;;;;;;;6208756;23;20031;-54
2022/12/13 12:23:22;;;;;;;6.33;3.23;;;;;;;;;;6207907;23;20021;-67
2022/12/13 12:25:50;;;;;;;7.73;3.63;;;;;;;;;;6208524;23;20021;-63
2022/12/13 12:28:27;;;;;;;7.20;3.77;;;;;;;;;;6207458;23;20604;-64
2022/12/13 12:31:07;;;;;;;6.20;3.33;;;;;;;;;;6207805;23;20024;-63
2022/12/13 12:33:56;;;;;;;6.57;3.40;;;;;;;;;;6207285;23;20025;-63
2022/12/13 12:36:30;;;;;;;6.27;3.33;;;;;;;;;;6208486;23;20030;-63
2022/12/13 12:39:16;;;;;;;6.20;3.40;;;;;;;;;;6208118;23;20100;-53
2022/12/13 12:41:47;;;;;;;9.70;3.60;;;;;;;;;;6208673;23;20027;-66
2022/12/13 12:44:44;;;;;;;7.83;4.20;;;;;;;;;;6207221;23;20115;-54
2022/12/13 12:47:30;;;;;;;7.63;4.07;;;;;;;;;;6208722;23;20027;-55
2022/12/13 12:50:27;;;;;;;7.03;3.57;;;;;;;;;;6209252;23;20047;-54
2022/12/13 12:52:59;;;;;;;11.00;3.50;;;;;;;;;;6208623;23;20024;-57
2022/12/13 12:55:42;;;;;;;7.07;3.80;;;;;;;;;;6210760;23;20040;-52
2022/12/13 12:58:09;;;;;;;11.37;3.67;;;;;;;;;;6209504;23;20024;-51
2022/12/13 13:01:04;;;;;;;7.30;3.83;;;;;;;;;;6209219;23;20298;-63
2022/12/13 13:03:40;;;;;;;6.53;3.70;;;;;;;;;;6210605;23;20613;-66
2022/12/13 13:06:11;;;;;;;9.63;3.83;;;;;;;;;;6210807;23;20029;-66
2022/12/13 13:08:53;;;;;;;8.80;3.93;;;;;;;;;;6209372;23;20055;-66
2022/12/13 13:11:24;;;;;;;6.53;4.00;;;;;;;;;;6210270;23;20024;-66
2022/12/13 13:13:57;;;;;;;6.93;3.40;;;;;;;;;;6209365;23;20104;-66
2022/12/13 13:16:28;;;;;;;6.43;3.57;;;;;;;;;;6209499;23;20614;-66
2022/12/13 13:19:14;;;;;;;7.53;3.53;;;;;;;;;;6174290;23;20465;-63
2022/12/13 13:21:54;;;;;;;7.53;3.10;;;;;;;;;;6179281;23;20025;-50
2022/12/13 13:24:29;;;;;;;7.13;3.70;;;;;;;;;;6179389;23;20047;-51
2022/12/13 13:26:57;;;;;;;7.27;3.80;;;;;;;;;;6179380;23;20096;-52
2022/12/13 13:29:27;;;;;;;7.70;4.13;;;;;;;;;;6180394;23;20025;-50
2022/12/13 13:32:04;;;;;;;4.20;2.60;;;;;;;;;;6180732;23;20021;-49
2022/12/13 13:34:33;;;;;;;7.47;4.07;;;;;;;;;;6179079;23;20545;-54
2022/12/13 13:37:19;;;;;;;7.03;3.67;;;;;;;;;;6180453;23;20092;-55
2022/12/13 13:39:55;;;;;;;8.07;3.90;;;;;;;;;;6179932;23;20032;-63
2022/12/13 13:42:29;;;;;;;7.23;4.00;;;;;;;;;;6180538;23;20023;-63
2022/12/13 13:45:17;;;;;;;8.87;4.10;;;;;;;;;;6179213;23;20058;-65
2022/12/13 13:48:03;;;;;;;7.50;3.73;;;;;;;;;;6179842;23;20025;-64
2022/12/13 13:50:49;;;;;;;8.17;3.93;;;;;;;;;;6179561;23;20021;-63
2022/12/13 13:53:42;;;;;;;10.30;4.30;;;;;;;;;;6179825;23;20032;-63
2022/12/13 13:56:16;;;;;;;11.43;4.10;;;;;;;;;;6152491;23;20021;-67
2022/12/13 13:58:50;;;;;;;9.10;4.30;;;;;;;;;;6154655;23;20025;-66
2022/12/13 14:01:23;;;;;;;8.98;4.07;;;;;;;;;;6180059;23;20027;-66
2022/12/13 14:04:03;;;;;;;7.27;3.90;;;;;;;;;;6178861;23;20029;-66
2022/12/13 14:06:34;;;;;;;7.73;4.07;;;;;;;;;;6178625;23;20060;-66
2022/12/13 14:09:27;;;;;;;8.90;4.43;;;;;;;;;;6178896;23;20025;-66
2022/12/13 14:12:11;;;;;;;8.20;3.90;;;;;;;;;;6178500;23;20023;-66
2022/12/13 14:14:49;;;;;;;5.67;3.63;;;;;;;;;;6178952;23;20021;-57
2022/12/13 14:17:19;;;;;;;8.50;4.10;;;;;;;;;;6180545;23;20039;-51
2022/12/13 14:20:22;;;;;;;7.20;3.42;;;;;;;;;;6198671;23;20020;-53
2022/12/13 14:22:49;;;;;;;8.27;4.77;;;;;;;;;;6208795;23;20366;-54
2022/12/13 14:25:35;;;;;;;10.63;4.23;;;;;;;;;;6209549;23;20099;-52
2022/12/13 14:28:10;;;;;;;8.27;4.00;;;;;;;;;;6207427;23;20029;-52
2022/12/13 14:30:44;;;;;;;8.03;3.80;;;;;;;;;;6208258;23;20025;-54
2022/12/13 14:33:24;;;;;;;14.00;4.87;;;;;;;;;;6209300;23;20056;-56
2022/12/13 14:35:58;;;;;;;8.10;4.43;;;;;;;;;;6208729;23;20031;-67
2022/12/13 14:38:29;;;;;;;9.80;3.93;;;;;;;;;;6209714;23;20055;-53
2022/12/13 14:41:04;;;;;;;;;;;;;;;;;;6209114;23;20017;-50
2022/12/13 14:43:32;;;;;;;;;;;;;;;;;;6209032;23;19994;-54
2022/12/13 14:46:06;;;;;;;9.90;4.07;;;;;;;;;;6208224;23;20061;-53
2022/12/13 14:48:35;;;;;;;12.07;5.00;;;;;;;;;;6209815;23;20031;-52
2022/12/13 14:51:03;;;;;;;14.60;5.17;;;;;;;;;;6207257;23;20549;-51
2022/12/13 14:53:40;;;;;;;12.73;5.00;;;;;;;;;;6208260;23;20467;-64
2022/12/13 14:56:07;;;;;;;8.73;4.67;;;;;;;;;;6182559;23;20025;-53
2022/12/13 14:58:35;;;;;;;8.83;4.77;;;;;;;;;;6208738;23;20027;-53
2022/12/13 15:01:24;;;;;;;10.40;5.40;;;;;;;;;;6208314;23;20020;-52
2022/12/13 15:04:17;;;;;;;12.67;5.60;;;;;;;;;;6207869;23;20017;-52
2022/12/13 15:06:45;;;;;;;14.60;5.87;;;;;;;;;;6208295;23;20500;-51
2022/12/13 15:09:19;;;;;;;20.10;8.60;;;;;;;;;;6209336;23;20048;-53
2022/12/13 15:11:46;;;;;;;17.07;7.33;;;;;;;;;;6206495;23;20100;-65
2022/12/13 15:14:25;;;;;;;13.07;6.67;;;;;;;;;;6208416;23;20083;-63
2022/12/13 15:16:52;;;;;;;;;;;;;;;;;;6209259;23;20027;-56
2022/12/13 15:19:41;;;;;;;10.07;5.83;;;;;;;;;;6207200;23;19994;-56
2022/12/13 15:22:15;;;;;;;8.00;4.73;;;;;;;;;;6209378;23;20091;-56
2022/12/13 15:24:55;;;;;;;15.57;5.63;;;;;;;;;;6203595;23;20071;-58
2022/12/13 15:27:23;;;;;;;9.63;5.23;;;;;;;;;;6207745;23;20369;-55
2022/12/13 15:29:57;;;;;;;12.40;5.67;;;;;;;;;;6209039;23;20060;-66
2022/12/13 15:32:24;;;;;;;10.90;5.53;;;;;;;;;;6209879;23;20021;-49
2022/12/13 15:34:51;;;;;;;11.68;6.13;;;;;;;;;;6207463;23;20350;-45
2022/12/13 15:37:34;;;;;;;11.40;5.47;;;;;;;;;;6208927;23;20060;-48
2022/12/13 15:40:08;;;;;;;11.93;5.33;;;;;;;;;;6207078;23;20492;-45